Station Historical Data
Daily Summary for July 29, 2017 Units:  Both    English   Metric
« Previous Day
Next Day »
Daily Weekly Monthly Yearly Custom
  High: Low: Average:
Temperature: 79.1 °F /  26.2 °C 55.9 °F /  13.3 °C 68.8 °F /  20.4 °C
Dew Point: 61.1 °F /  16.2 °C 51.1 °F /  10.6 °C 56.7 °F /  13.7 °C
Humidity: 89% 49% 67%
Wind Speed: 15.0mph /  24.1km/h - 2.2mph /  3.5km/h
Wind Gust: 24.0mph /  38.6km/h - -
Wind- - ESE
Pressure: 30.01 in /  1016.1 hPa 29.92 in /  1013.1 hPa -
Precipitation: 0.00 in /  0 mm    
Historical Graphs
 
 
Tabular Data for July 29, 2017
Time Temperature Dew Point Pressure Wind Wind Speed Wind Gust Humidity Rainfall Rate (Hourly)
00:04 59.3 °F /  15.2 °C 51.7 °F /  10.9 °C 29.95in /  1014.1hPa Calm     76% 0.00in /  0mm
00:09 59.0 °F /  15 °C 51.4 °F /  10.8 °C 29.95in /  1014.1hPa Calm     76% 0.00in /  0mm
00:14 58.8 °F /  14.9 °C 51.2 °F /  10.7 °C 29.95in /  1014.1hPa Calm     76% 0.00in /  0mm
00:19 58.6 °F /  14.8 °C 51.4 °F /  10.8 °C 29.95in /  1014.1hPa Calm     77% 0.00in /  0mm
00:24 58.3 °F /  14.6 °C 51.1 °F /  10.6 °C 29.96in /  1014.4hPa Calm     77% 0.00in /  0mm
00:29 58.3 °F /  14.6 °C 51.1 °F /  10.6 °C 29.96in /  1014.4hPa Calm     77% 0.00in /  0mm
00:34 58.0 °F /  14.4 °C 51.2 °F /  10.7 °C 29.95in /  1014.1hPa Calm     78% 0.00in /  0mm
00:39 57.9 °F /  14.4 °C 51.4 °F /  10.8 °C 29.95in /  1014.1hPa Calm     79% 0.00in /  0mm
00:44 57.8 °F /  14.3 °C 51.3 °F /  10.7 °C 29.95in /  1014.1hPa Calm     79% 0.00in /  0mm
00:49 57.7 °F /  14.3 °C 51.2 °F /  10.7 °C 29.96in /  1014.4hPa Calm     79% 0.00in /  0mm
00:54 57.3 °F /  14.1 °C 51.2 °F /  10.7 °C 29.95in /  1014.1hPa Calm     80% 0.00in /  0mm
00:59 57.3 °F /  14.1 °C 51.5 °F /  10.8 °C 29.95in /  1014.1hPa Calm     81% 0.00in /  0mm
01:04 57.5 °F /  14.2 °C 51.7 °F /  10.9 °C 29.95in /  1014.1hPa Calm     81% 0.00in /  0mm
01:09 57.3 °F /  14.1 °C 51.5 °F /  10.8 °C 29.95in /  1014.1hPa Calm     81% 0.00in /  0mm
01:14 57.3 °F /  14.1 °C 51.5 °F /  10.8 °C 29.95in /  1014.1hPa Calm     81% 0.00in /  0mm
01:19 57.5 °F /  14.2 °C 51.7 °F /  10.9 °C 29.94in /  1013.8hPa Calm     81% 0.00in /  0mm
01:24 58.0 °F /  14.4 °C 51.9 °F /  11.1 °C 29.94in /  1013.8hPa Calm     80% 0.00in /  0mm
01:29 58.4 °F /  14.7 °C 51.9 °F /  11.1 °C 29.94in /  1013.8hPa Calm     79% 0.00in /  0mm
01:34 58.5 °F /  14.7 °C 52.0 °F /  11.1 °C 29.94in /  1013.8hPa Calm     79% 0.00in /  0mm
01:39 58.5 °F /  14.7 °C 52.0 °F /  11.1 °C 29.95in /  1014.1hPa Calm     79% 0.00in /  0mm
01:44 58.3 °F /  14.6 °C 51.8 °F /  11 °C 29.94in /  1013.8hPa Calm     79% 0.00in /  0mm
01:49 58.1 °F /  14.5 °C 51.6 °F /  10.9 °C 29.95in /  1014.1hPa Calm     79% 0.00in /  0mm
01:54 57.9 °F /  14.4 °C 51.8 °F /  11 °C 29.94in /  1013.8hPa Calm     80% 0.00in /  0mm
01:59 57.9 °F /  14.4 °C 51.8 °F /  11 °C 29.94in /  1013.8hPa Calm     80% 0.00in /  0mm
02:04 57.9 °F /  14.4 °C 52.1 °F /  11.2 °C 29.94in /  1013.8hPa Calm     81% 0.00in /  0mm
02:09 57.8 °F /  14.3 °C 52.0 °F /  11.1 °C 29.94in /  1013.8hPa Calm     81% 0.00in /  0mm
02:14 57.7 °F /  14.3 °C 51.9 °F /  11.1 °C 29.94in /  1013.8hPa Calm     81% 0.00in /  0mm
02:19 57.6 °F /  14.2 °C 51.8 °F /  11 °C 29.94in /  1013.8hPa Calm     81% 0.00in /  0mm
02:24 57.5 °F /  14.2 °C 52.0 °F /  11.1 °C 29.94in /  1013.8hPa Calm     82% 0.00in /  0mm
02:29 57.5 °F /  14.2 °C 52.0 °F /  11.1 °C 29.94in /  1013.8hPa Calm     82% 0.00in /  0mm
02:34 57.6 °F /  14.2 °C 52.1 °F /  11.2 °C 29.93in /  1013.4hPa Calm     82% 0.00in /  0mm
02:39 57.8 °F /  14.3 °C 52.3 °F /  11.3 °C 29.92in /  1013.1hPa Calm     82% 0.00in /  0mm
02:44 58.0 °F /  14.4 °C 52.2 °F /  11.2 °C 29.92in /  1013.1hPa Calm     81% 0.00in /  0mm
02:49 58.2 °F /  14.6 °C 52.4 °F /  11.3 °C 29.92in /  1013.1hPa Calm     81% 0.00in /  0mm
02:54 58.3 °F /  14.6 °C 52.5 °F /  11.4 °C 29.92in /  1013.1hPa Calm     81% 0.00in /  0mm
02:59 58.3 °F /  14.6 °C 52.5 °F /  11.4 °C 29.92in /  1013.1hPa Calm     81% 0.00in /  0mm
03:04 58.3 °F /  14.6 °C 52.5 °F /  11.4 °C 29.93in /  1013.4hPa Calm     81% 0.00in /  0mm
03:09 58.2 °F /  14.6 °C 52.4 °F /  11.3 °C 29.93in /  1013.4hPa Calm     81% 0.00in /  0mm
03:14 58.0 °F /  14.4 °C 52.2 °F /  11.2 °C 29.93in /  1013.4hPa Calm     81% 0.00in /  0mm
03:19 57.7 °F /  14.3 °C 51.9 °F /  11.1 °C 29.93in /  1013.4hPa Calm     81% 0.00in /  0mm
03:24 57.5 °F /  14.2 °C 52.0 °F /  11.1 °C 29.93in /  1013.4hPa Calm     82% 0.00in /  0mm
03:29 57.3 °F /  14.1 °C 51.9 °F /  11.1 °C 29.93in /  1013.4hPa Calm     82% 0.00in /  0mm
03:34 57.3 °F /  14.1 °C 52.2 °F /  11.2 °C 29.93in /  1013.4hPa Calm     83% 0.00in /  0mm
03:39 57.6 °F /  14.2 °C 52.1 °F /  11.2 °C 29.93in /  1013.4hPa Calm     82% 0.00in /  0mm
03:44 57.6 °F /  14.2 °C 52.1 °F /  11.2 °C 29.93in /  1013.4hPa Calm     82% 0.00in /  0mm
03:49 57.3 °F /  14.1 °C 52.2 °F /  11.2 °C 29.93in /  1013.4hPa Calm     83% 0.00in /  0mm
03:54 57.0 °F /  13.9 °C 51.9 °F /  11.1 °C 29.93in /  1013.4hPa Calm     83% 0.00in /  0mm
03:59 56.8 °F /  13.8 °C 52.0 °F /  11.1 °C 29.93in /  1013.4hPa Calm     84% 0.00in /  0mm
04:04 56.6 °F /  13.7 °C 51.8 °F /  11 °C 29.93in /  1013.4hPa Calm     84% 0.00in /  0mm
04:09 56.6 °F /  13.7 °C 51.8 °F /  11 °C 29.93in /  1013.4hPa Calm     84% 0.00in /  0mm
04:14 56.6 °F /  13.7 °C 52.1 °F /  11.2 °C 29.93in /  1013.4hPa Calm     85% 0.00in /  0mm
04:19 56.4 °F /  13.6 °C 51.9 °F /  11.1 °C 29.93in /  1013.4hPa Calm     85% 0.00in /  0mm
04:24 56.2 °F /  13.4 °C 51.7 °F /  10.9 °C 29.93in /  1013.4hPa Calm     85% 0.00in /  0mm
04:29 56.0 °F /  13.3 °C 51.6 °F /  10.9 °C 29.93in /  1013.4hPa Calm     85% 0.00in /  0mm
04:34 56.0 °F /  13.3 °C 51.9 °F /  11.1 °C 29.93in /  1013.4hPa Calm     86% 0.00in /  0mm
04:39 56.0 °F /  13.3 °C 51.9 °F /  11.1 °C 29.93in /  1013.4hPa Calm     86% 0.00in /  0mm
04:44 55.9 °F /  13.3 °C 51.8 °F /  11 °C 29.93in /  1013.4hPa Calm     86% 0.00in /  0mm
04:49 56.0 °F /  13.3 °C 51.9 °F /  11.1 °C 29.93in /  1013.4hPa Calm     86% 0.00in /  0mm
04:54 56.4 °F /  13.6 °C 52.3 °F /  11.3 °C 29.93in /  1013.4hPa Calm     86% 0.00in /  0mm
04:59 56.7 °F /  13.7 °C 52.6 °F /  11.4 °C 29.93in /  1013.4hPa Calm     86% 0.00in /  0mm
05:04 56.7 °F /  13.7 °C 52.6 °F /  11.4 °C 29.93in /  1013.4hPa Calm     86% 0.00in /  0mm
05:09 56.7 °F /  13.7 °C 52.2 °F /  11.2 °C 29.93in /  1013.4hPa Calm     85% 0.00in /  0mm
05:19 56.4 °F /  13.6 °C 52.3 °F /  11.3 °C 29.93in /  1013.4hPa Calm     86% 0.00in /  0mm
05:24 56.5 °F /  13.6 °C 52.4 °F /  11.3 °C 29.93in /  1013.4hPa Calm     86% 0.00in /  0mm
05:29 56.4 °F /  13.6 °C 52.3 °F /  11.3 °C 29.94in /  1013.8hPa Calm     86% 0.00in /  0mm
05:34 56.3 °F /  13.5 °C 52.5 °F /  11.4 °C 29.94in /  1013.8hPa Calm     87% 0.00in /  0mm
05:39 56.2 °F /  13.4 °C 52.4 °F /  11.3 °C 29.94in /  1013.8hPa Calm     87% 0.00in /  0mm
05:44 55.9 °F /  13.3 °C 52.1 °F /  11.2 °C 29.94in /  1013.8hPa Calm     87% 0.00in /  0mm
05:49 55.9 °F /  13.3 °C 52.1 °F /  11.2 °C 29.94in /  1013.8hPa Calm     87% 0.00in /  0mm
05:54 55.9 °F /  13.3 °C 52.4 °F /  11.3 °C 29.94in /  1013.8hPa Calm     88% 0.00in /  0mm
05:59 56.0 °F /  13.3 °C 52.5 °F /  11.4 °C 29.94in /  1013.8hPa Calm     88% 0.00in /  0mm
06:04 56.2 °F /  13.4 °C 52.7 °F /  11.5 °C 29.95in /  1014.1hPa Calm     88% 0.00in /  0mm
06:09 56.5 °F /  13.6 °C 53.3 °F /  11.8 °C 29.95in /  1014.1hPa Calm     89% 0.00in /  0mm
06:14 56.9 °F /  13.8 °C 53.7 °F /  12.1 °C 29.95in /  1014.1hPa Calm     89% 0.00in /  0mm
06:19 57.3 °F /  14.1 °C 54.1 °F /  12.3 °C 29.95in /  1014.1hPa Calm     89% 0.00in /  0mm
06:24 57.5 °F /  14.2 °C 54.3 °F /  12.4 °C 29.95in /  1014.1hPa Calm   2.0mph /  3.2km/h 89% 0.00in /  0mm
06:29 57.8 °F /  14.3 °C 54.6 °F /  12.6 °C 29.95in /  1014.1hPa Calm   2.0mph /  3.2km/h 89% 0.00in /  0mm
06:34 58.0 °F /  14.4 °C 54.8 °F /  12.7 °C 29.95in /  1014.1hPa Calm   1.0mph /  1.6km/h 89% 0.00in /  0mm
06:39 58.4 °F /  14.7 °C 55.2 °F /  12.9 °C 29.96in /  1014.4hPa Calm   2.0mph /  3.2km/h 89% 0.00in /  0mm
06:44 58.7 °F /  14.8 °C 55.5 °F /  13.1 °C 29.96in /  1014.4hPa Calm   2.0mph /  3.2km/h 89% 0.00in /  0mm
06:49 58.9 °F /  14.9 °C 55.7 °F /  13.2 °C 29.96in /  1014.4hPa Calm     89% 0.00in /  0mm
06:54 59.1 °F /  15.1 °C 55.9 °F /  13.3 °C 29.96in /  1014.4hPa Calm     89% 0.00in /  0mm
06:59 59.4 °F /  15.2 °C 56.2 °F /  13.4 °C 29.97in /  1014.8hPa Calm     89% 0.00in /  0mm
07:04 59.6 °F /  15.3 °C 56.4 °F /  13.6 °C 29.97in /  1014.8hPa Calm     89% 0.00in /  0mm
07:09 59.8 °F /  15.4 °C 56.6 °F /  13.7 °C 29.97in /  1014.8hPa Calm     89% 0.00in /  0mm
07:14 60.1 °F /  15.6 °C 56.8 °F /  13.8 °C 29.97in /  1014.8hPa Calm     89% 0.00in /  0mm
07:19 60.4 °F /  15.8 °C 56.8 °F /  13.8 °C 29.97in /  1014.8hPa Calm     88% 0.00in /  0mm
07:24 60.6 °F /  15.9 °C 57.0 °F /  13.9 °C 29.97in /  1014.8hPa Calm     88% 0.00in /  0mm
07:29 60.9 °F /  16.1 °C 57.3 °F /  14.1 °C 29.97in /  1014.8hPa Calm   4.0mph /  6.4km/h 88% 0.00in /  0mm
07:34 61.2 °F /  16.2 °C 57.6 °F /  14.2 °C 29.98in /  1015.1hPa NNW 1.0mph /  1.6km/h 4.0mph /  6.4km/h 88% 0.00in /  0mm
07:39 61.4 °F /  16.3 °C 57.8 °F /  14.3 °C 29.98in /  1015.1hPa NNE 2.0mph /  3.2km/h 3.0mph /  4.8km/h 88% 0.00in /  0mm
07:44 61.6 °F /  16.4 °C 57.7 °F /  14.3 °C 29.98in /  1015.1hPa NNE 2.0mph /  3.2km/h 3.0mph /  4.8km/h 87% 0.00in /  0mm
07:49 62.1 °F /  16.7 °C 58.2 °F /  14.6 °C 29.98in /  1015.1hPa NNE 1.0mph /  1.6km/h 3.0mph /  4.8km/h 87% 0.00in /  0mm
07:54 62.9 °F /  17.2 °C 59.0 °F /  15 °C 29.98in /  1015.1hPa NNE 1.0mph /  1.6km/h 3.0mph /  4.8km/h 87% 0.00in /  0mm
07:59 63.4 °F /  17.4 °C 59.1 °F /  15.1 °C 29.98in /  1015.1hPa NNE 2.0mph /  3.2km/h 4.0mph /  6.4km/h 86% 0.00in /  0mm
08:09 63.9 °F /  17.7 °C 59.3 °F /  15.2 °C 29.99in /  1015.5hPa NNE 2.0mph /  3.2km/h 6.0mph /  9.7km/h 85% 0.00in /  0mm
08:14 63.9 °F /  17.7 °C 59.0 °F /  15 °C 29.99in /  1015.5hPa NE 1.0mph /  1.6km/h 6.0mph /  9.7km/h 84% 0.00in /  0mm
08:24 64.0 °F /  17.8 °C 59.4 °F /  15.2 °C 29.99in /  1015.5hPa North 1.0mph /  1.6km/h 6.0mph /  9.7km/h 85% 0.00in /  0mm
08:29 64.5 °F /  18.1 °C 59.6 °F /  15.3 °C 29.99in /  1015.5hPa North 1.0mph /  1.6km/h 4.0mph /  6.4km/h 84% 0.00in /  0mm
08:34 65.1 °F /  18.4 °C 59.8 °F /  15.4 °C 29.99in /  1015.5hPa NNE 2.0mph /  3.2km/h 5.0mph /  8km/h 83% 0.00in /  0mm
08:39 66.2 °F /  19 °C 60.9 °F /  16.1 °C 29.99in /  1015.5hPa NNE 2.0mph /  3.2km/h 5.0mph /  8km/h 83% 0.00in /  0mm
08:44 66.9 °F /  19.4 °C 60.5 °F /  15.8 °C 29.99in /  1015.5hPa NNE 2.0mph /  3.2km/h 6.0mph /  9.7km/h 80% 0.00in /  0mm
08:49 67.3 °F /  19.6 °C 60.9 °F /  16.1 °C 29.99in /  1015.5hPa NNE 2.0mph /  3.2km/h 10.0mph /  16.1km/h 80% 0.00in /  0mm
08:54 67.9 °F /  19.9 °C 61.1 °F /  16.2 °C 29.99in /  1015.5hPa NE 3.0mph /  4.8km/h 9.0mph /  14.5km/h 79% 0.00in /  0mm
09:04 68.3 °F /  20.2 °C 60.1 °F /  15.6 °C 29.99in /  1015.5hPa North 4.0mph /  6.4km/h 8.0mph /  12.9km/h 75% 0.00in /  0mm
09:09 69.0 °F /  20.6 °C 60.4 °F /  15.8 °C 29.99in /  1015.5hPa Calm   4.0mph /  6.4km/h 74% 0.00in /  0mm
09:14 69.3 °F /  20.7 °C 59.1 °F /  15.1 °C 30.00in /  1015.8hPa NE 4.0mph /  6.4km/h 10.0mph /  16.1km/h 70% 0.00in /  0mm
09:19 69.8 °F /  21 °C 60.4 °F /  15.8 °C 30.00in /  1015.8hPa NE 3.0mph /  4.8km/h 10.0mph /  16.1km/h 72% 0.00in /  0mm
09:24 70.3 °F /  21.3 °C 60.4 °F /  15.8 °C 30.00in /  1015.8hPa NE 4.0mph /  6.4km/h 9.0mph /  14.5km/h 71% 0.00in /  0mm
09:29 71.0 °F /  21.7 °C 60.3 °F /  15.7 °C 30.00in /  1015.8hPa NE 3.0mph /  4.8km/h 9.0mph /  14.5km/h 69% 0.00in /  0mm
09:34 71.4 °F /  21.9 °C 59.9 °F /  15.5 °C 30.00in /  1015.8hPa NNE 5.0mph /  8km/h 10.0mph /  16.1km/h 67% 0.00in /  0mm
09:39 71.7 °F /  22.1 °C 58.9 °F /  14.9 °C 30.00in /  1015.8hPa NNE 4.0mph /  6.4km/h 10.0mph /  16.1km/h 64% 0.00in /  0mm
09:44 72.0 °F /  22.2 °C 59.2 °F /  15.1 °C 30.00in /  1015.8hPa NNE 4.0mph /  6.4km/h 8.0mph /  12.9km/h 64% 0.00in /  0mm
09:49 71.8 °F /  22.1 °C 57.2 °F /  14 °C 30.00in /  1015.8hPa NNE 4.0mph /  6.4km/h 15.0mph /  24.1km/h 60% 0.00in /  0mm
09:54 72.3 °F /  22.4 °C 57.6 °F /  14.2 °C 30.00in /  1015.8hPa NE 4.0mph /  6.4km/h 16.0mph /  25.7km/h 60% 0.00in /  0mm
09:59 72.6 °F /  22.6 °C 57.4 °F /  14.1 °C 30.00in /  1015.8hPa NE 6.0mph /  9.7km/h 16.0mph /  25.7km/h 59% 0.00in /  0mm
10:04 72.7 °F /  22.6 °C 56.6 °F /  13.7 °C 30.00in /  1015.8hPa ESE 11.0mph /  17.7km/h 13.0mph /  20.9km/h 57% 0.00in /  0mm
10:09 72.7 °F /  22.6 °C 56.6 °F /  13.7 °C 30.00in /  1015.8hPa NE 4.0mph /  6.4km/h 15.0mph /  24.1km/h 57% 0.00in /  0mm
10:14 73.1 °F /  22.8 °C 57.4 °F /  14.1 °C 30.00in /  1015.8hPa NNW 5.0mph /  8km/h 11.0mph /  17.7km/h 58% 0.00in /  0mm
10:19 73.5 °F /  23.1 °C 58.8 °F /  14.9 °C 30.00in /  1015.8hPa NE 5.0mph /  8km/h 11.0mph /  17.7km/h 60% 0.00in /  0mm
10:24 73.8 °F /  23.2 °C 57.6 °F /  14.2 °C 30.00in /  1015.8hPa NE 5.0mph /  8km/h 14.0mph /  22.5km/h 57% 0.00in /  0mm
10:29 73.5 °F /  23.1 °C 58.3 °F /  14.6 °C 30.01in /  1016.1hPa NE 6.0mph /  9.7km/h 14.0mph /  22.5km/h 59% 0.00in /  0mm
10:34 73.6 °F /  23.1 °C 58.4 °F /  14.7 °C 30.00in /  1015.8hPa North 3.0mph /  4.8km/h 13.0mph /  20.9km/h 59% 0.00in /  0mm
10:39 73.5 °F /  23.1 °C 57.8 °F /  14.3 °C 30.01in /  1016.1hPa NE 13.0mph /  20.9km/h 17.0mph /  27.4km/h 58% 0.00in /  0mm
10:44 73.8 °F /  23.2 °C 57.1 °F /  13.9 °C 30.01in /  1016.1hPa NE 9.0mph /  14.5km/h 13.0mph /  20.9km/h 56% 0.00in /  0mm
10:49 74.0 °F /  23.3 °C 56.8 °F /  13.8 °C 30.01in /  1016.1hPa NE 8.0mph /  12.9km/h 24.0mph /  38.6km/h 55% 0.00in /  0mm
10:54 74.0 °F /  23.3 °C 56.3 °F /  13.5 °C 30.01in /  1016.1hPa NE 9.0mph /  14.5km/h 24.0mph /  38.6km/h 54% 0.00in /  0mm
10:59 74.2 °F /  23.4 °C 55.4 °F /  13 °C 30.01in /  1016.1hPa ENE 9.0mph /  14.5km/h 20.0mph /  32.2km/h 52% 0.00in /  0mm
11:04 73.9 °F /  23.3 °C 56.2 °F /  13.4 °C 30.01in /  1016.1hPa NE 3.0mph /  4.8km/h 17.0mph /  27.4km/h 54% 0.00in /  0mm
11:09 74.0 °F /  23.3 °C 55.8 °F /  13.2 °C 30.01in /  1016.1hPa NE 5.0mph /  8km/h 13.0mph /  20.9km/h 53% 0.00in /  0mm
11:14 73.6 °F /  23.1 °C 55.9 °F /  13.3 °C 30.01in /  1016.1hPa NE 6.0mph /  9.7km/h 17.0mph /  27.4km/h 54% 0.00in /  0mm
11:19 73.0 °F /  22.8 °C 56.4 °F /  13.6 °C 30.01in /  1016.1hPa NE 4.0mph /  6.4km/h 9.0mph /  14.5km/h 56% 0.00in /  0mm
11:24 73.5 °F /  23.1 °C 55.8 °F /  13.2 °C 30.01in /  1016.1hPa NNE 3.0mph /  4.8km/h 11.0mph /  17.7km/h 54% 0.00in /  0mm
11:29 74.2 °F /  23.4 °C 55.4 °F /  13 °C 30.01in /  1016.1hPa ENE 10.0mph /  16.1km/h 15.0mph /  24.1km/h 52% 0.00in /  0mm
11:34 74.7 °F /  23.7 °C 55.9 °F /  13.3 °C 30.01in /  1016.1hPa NE 7.0mph /  11.3km/h 15.0mph /  24.1km/h 52% 0.00in /  0mm
11:39 75.5 °F /  24.2 °C 58.2 °F /  14.6 °C 30.01in /  1016.1hPa NE 6.0mph /  9.7km/h 14.0mph /  22.5km/h 55% 0.00in /  0mm
11:44 75.5 °F /  24.2 °C 55.6 °F /  13.1 °C 30.01in /  1016.1hPa NE 5.0mph /  8km/h 12.0mph /  19.3km/h 50% 0.00in /  0mm
11:49 75.7 °F /  24.3 °C 57.9 °F /  14.4 °C 30.00in /  1015.8hPa NNE 4.0mph /  6.4km/h 12.0mph /  19.3km/h 54% 0.00in /  0mm
11:54 75.2 °F /  24 °C 55.3 °F /  12.9 °C 30.00in /  1015.8hPa ENE 11.0mph /  17.7km/h 13.0mph /  20.9km/h 50% 0.00in /  0mm
11:59 74.8 °F /  23.8 °C 56.5 °F /  13.6 °C 30.01in /  1016.1hPa NE 3.0mph /  4.8km/h 13.0mph /  20.9km/h 53% 0.00in /  0mm
12:04 74.7 °F /  23.7 °C 55.9 °F /  13.3 °C 30.01in /  1016.1hPa NE 6.0mph /  9.7km/h 18.0mph /  29km/h 52% 0.00in /  0mm
12:09 74.6 °F /  23.7 °C 54.7 °F /  12.6 °C 30.00in /  1015.8hPa NE 2.0mph /  3.2km/h 17.0mph /  27.4km/h 50% 0.00in /  0mm
12:14 74.7 °F /  23.7 °C 56.4 °F /  13.6 °C 30.00in /  1015.8hPa NE 4.0mph /  6.4km/h 16.0mph /  25.7km/h 53% 0.00in /  0mm
12:19 76.1 °F /  24.5 °C 57.2 °F /  14 °C 30.00in /  1015.8hPa NE 7.0mph /  11.3km/h 10.0mph /  16.1km/h 52% 0.00in /  0mm
12:24 76.1 °F /  24.5 °C 57.7 °F /  14.3 °C 30.00in /  1015.8hPa North 3.0mph /  4.8km/h 15.0mph /  24.1km/h 53% 0.00in /  0mm
12:29 76.6 °F /  24.8 °C 56.6 °F /  13.7 °C 30.00in /  1015.8hPa NE 4.0mph /  6.4km/h 14.0mph /  22.5km/h 50% 0.00in /  0mm
12:34 77.3 °F /  25.2 °C 57.2 °F /  14 °C 30.00in /  1015.8hPa NE 4.0mph /  6.4km/h 14.0mph /  22.5km/h 50% 0.00in /  0mm
12:39 77.0 °F /  25 °C 57.5 °F /  14.2 °C 30.00in /  1015.8hPa NE 5.0mph /  8km/h 15.0mph /  24.1km/h 51% 0.00in /  0mm
12:44 75.6 °F /  24.2 °C 58.8 °F /  14.9 °C 30.00in /  1015.8hPa NE 5.0mph /  8km/h 15.0mph /  24.1km/h 56% 0.00in /  0mm
12:49 76.7 °F /  24.8 °C 58.3 °F /  14.6 °C 30.00in /  1015.8hPa NNE 4.0mph /  6.4km/h 10.0mph /  16.1km/h 53% 0.00in /  0mm
12:54 76.0 °F /  24.4 °C 57.1 °F /  13.9 °C 30.00in /  1015.8hPa NNE 4.0mph /  6.4km/h 11.0mph /  17.7km/h 52% 0.00in /  0mm
12:59 76.9 °F /  24.9 °C 59.0 °F /  15 °C 30.00in /  1015.8hPa NW 4.0mph /  6.4km/h 8.0mph /  12.9km/h 54% 0.00in /  0mm
13:04 77.1 °F /  25.1 °C 57.0 °F /  13.9 °C 30.00in /  1015.8hPa NNE 4.0mph /  6.4km/h 16.0mph /  25.7km/h 50% 0.00in /  0mm
13:09 76.2 °F /  24.6 °C 56.2 °F /  13.4 °C 29.99in /  1015.5hPa NE 5.0mph /  8km/h 16.0mph /  25.7km/h 50% 0.00in /  0mm
13:14 76.7 °F /  24.8 °C 58.8 °F /  14.9 °C 29.99in /  1015.5hPa NE 6.0mph /  9.7km/h 16.0mph /  25.7km/h 54% 0.00in /  0mm
13:19 76.7 °F /  24.8 °C 56.1 °F /  13.4 °C 29.99in /  1015.5hPa NE 8.0mph /  12.9km/h 17.0mph /  27.4km/h 49% 0.00in /  0mm
13:24 76.6 °F /  24.8 °C 57.1 °F /  13.9 °C 29.99in /  1015.5hPa NNE 6.0mph /  9.7km/h 14.0mph /  22.5km/h 51% 0.00in /  0mm
13:29 76.6 °F /  24.8 °C 58.2 °F /  14.6 °C 29.99in /  1015.5hPa North 3.0mph /  4.8km/h 14.0mph /  22.5km/h 53% 0.00in /  0mm
13:34 77.4 °F /  25.2 °C 57.3 °F /  14.1 °C 29.99in /  1015.5hPa NE 5.0mph /  8km/h 14.0mph /  22.5km/h 50% 0.00in /  0mm
13:39 76.6 °F /  24.8 °C 56.6 °F /  13.7 °C 29.99in /  1015.5hPa East 5.0mph /  8km/h 12.0mph /  19.3km/h 50% 0.00in /  0mm
13:44 77.3 °F /  25.2 °C 58.8 °F /  14.9 °C 29.99in /  1015.5hPa NNW 3.0mph /  4.8km/h 13.0mph /  20.9km/h 53% 0.00in /  0mm
13:49 76.5 °F /  24.7 °C 56.5 °F /  13.6 °C 30.00in /  1015.8hPa NNE 2.0mph /  3.2km/h 9.0mph /  14.5km/h 50% 0.00in /  0mm
13:54 76.9 °F /  24.9 °C 57.4 °F /  14.1 °C 30.00in /  1015.8hPa NNE 5.0mph /  8km/h 12.0mph /  19.3km/h 51% 0.00in /  0mm
13:59 76.1 °F /  24.5 °C 56.7 °F /  13.7 °C 30.00in /  1015.8hPa NE 4.0mph /  6.4km/h 14.0mph /  22.5km/h 51% 0.00in /  0mm
14:04 76.2 °F /  24.6 °C 56.7 °F /  13.7 °C 30.00in /  1015.8hPa ENE 4.0mph /  6.4km/h 15.0mph /  24.1km/h 51% 0.00in /  0mm
14:09 76.4 °F /  24.7 °C 56.9 °F /  13.8 °C 30.00in /  1015.8hPa ENE 8.0mph /  12.9km/h 15.0mph /  24.1km/h 51% 0.00in /  0mm
14:14 76.6 °F /  24.8 °C 57.1 °F /  13.9 °C 30.00in /  1015.8hPa ENE 11.0mph /  17.7km/h 14.0mph /  22.5km/h 51% 0.00in /  0mm
14:19 77.1 °F /  25.1 °C 57.6 °F /  14.2 °C 30.00in /  1015.8hPa NNE 3.0mph /  4.8km/h 13.0mph /  20.9km/h 51% 0.00in /  0mm
14:24 76.4 °F /  24.7 °C 58.0 °F /  14.4 °C 30.00in /  1015.8hPa NE 4.0mph /  6.4km/h 13.0mph /  20.9km/h 53% 0.00in /  0mm
14:29 77.2 °F /  25.1 °C 59.3 °F /  15.2 °C 30.00in /  1015.8hPa NNE 3.0mph /  4.8km/h 11.0mph /  17.7km/h 54% 0.00in /  0mm
14:34 76.4 °F /  24.7 °C 56.4 °F /  13.6 °C 30.00in /  1015.8hPa NE 4.0mph /  6.4km/h 11.0mph /  17.7km/h 50% 0.00in /  0mm
14:39 76.1 °F /  24.5 °C 56.7 °F /  13.7 °C 30.00in /  1015.8hPa NE 5.0mph /  8km/h 11.0mph /  17.7km/h 51% 0.00in /  0mm
14:44 76.4 °F /  24.7 °C 59.0 °F /  15 °C 30.00in /  1015.8hPa NNW 2.0mph /  3.2km/h 12.0mph /  19.3km/h 55% 0.00in /  0mm
14:49 77.3 °F /  25.2 °C 57.8 °F /  14.3 °C 30.00in /  1015.8hPa North 4.0mph /  6.4km/h 9.0mph /  14.5km/h 51% 0.00in /  0mm
14:54 77.2 °F /  25.1 °C 57.1 °F /  13.9 °C 30.00in /  1015.8hPa NNE 4.0mph /  6.4km/h 11.0mph /  17.7km/h 50% 0.00in /  0mm
14:59 77.2 °F /  25.1 °C 58.7 °F /  14.8 °C 30.00in /  1015.8hPa NW 6.0mph /  9.7km/h 10.0mph /  16.1km/h 53% 0.00in /  0mm
15:04 77.7 °F /  25.4 °C 59.7 °F /  15.4 °C 29.99in /  1015.5hPa NNW 5.0mph /  8km/h 14.0mph /  22.5km/h 54% 0.00in /  0mm
15:09 77.9 °F /  25.5 °C 58.9 °F /  14.9 °C 29.99in /  1015.5hPa North 6.0mph /  9.7km/h 10.0mph /  16.1km/h 52% 0.00in /  0mm
15:14 77.8 °F /  25.4 °C 59.3 °F /  15.2 °C 29.99in /  1015.5hPa NE 12.0mph /  19.3km/h 12.0mph /  19.3km/h 53% 0.00in /  0mm
15:19 77.7 °F /  25.4 °C 59.2 °F /  15.1 °C 29.99in /  1015.5hPa ENE 8.0mph /  12.9km/h 17.0mph /  27.4km/h 53% 0.00in /  0mm
15:24 78.1 °F /  25.6 °C 59.0 °F /  15 °C 29.99in /  1015.5hPa NE 5.0mph /  8km/h 17.0mph /  27.4km/h 52% 0.00in /  0mm
15:29 78.3 °F /  25.7 °C 59.2 °F /  15.1 °C 29.99in /  1015.5hPa NE 4.0mph /  6.4km/h 8.0mph /  12.9km/h 52% 0.00in /  0mm
15:34 77.3 °F /  25.2 °C 56.6 °F /  13.7 °C 29.99in /  1015.5hPa ENE 5.0mph /  8km/h 13.0mph /  20.9km/h 49% 0.00in /  0mm
15:39 77.1 °F /  25.1 °C 57.6 °F /  14.2 °C 29.99in /  1015.5hPa East 15.0mph /  24.1km/h 15.0mph /  24.1km/h 51% 0.00in /  0mm
15:44 77.2 °F /  25.1 °C 57.7 °F /  14.3 °C 29.98in /  1015.1hPa NE 6.0mph /  9.7km/h 13.0mph /  20.9km/h 51% 0.00in /  0mm
15:49 78.1 °F /  25.6 °C 59.0 °F /  15 °C 29.99in /  1015.5hPa NNW 4.0mph /  6.4km/h 12.0mph /  19.3km/h 52% 0.00in /  0mm
15:54 78.2 °F /  25.7 °C 58.0 °F /  14.4 °C 29.99in /  1015.5hPa NE 5.0mph /  8km/h 13.0mph /  20.9km/h 50% 0.00in /  0mm
15:59 77.7 °F /  25.4 °C 58.1 °F /  14.5 °C 29.98in /  1015.1hPa NE 5.0mph /  8km/h 13.0mph /  20.9km/h 51% 0.00in /  0mm
16:04 78.2 °F /  25.7 °C 58.6 °F /  14.8 °C 29.98in /  1015.1hPa NNW 4.0mph /  6.4km/h 10.0mph /  16.1km/h 51% 0.00in /  0mm
16:09 78.0 °F /  25.6 °C 59.5 °F /  15.3 °C 29.98in /  1015.1hPa NNE 7.0mph /  11.3km/h 10.0mph /  16.1km/h 53% 0.00in /  0mm
16:14 78.1 °F /  25.6 °C 59.6 °F /  15.3 °C 29.98in /  1015.1hPa NE 4.0mph /  6.4km/h 13.0mph /  20.9km/h 53% 0.00in /  0mm
16:19 78.8 °F /  26 °C 59.1 °F /  15.1 °C 29.98in /  1015.1hPa North 3.0mph /  4.8km/h 8.0mph /  12.9km/h 51% 0.00in /  0mm
16:24 79.1 °F /  26.2 °C 58.9 °F /  14.9 °C 29.98in /  1015.1hPa North 3.0mph /  4.8km/h 10.0mph /  16.1km/h 50% 0.00in /  0mm
16:29 78.3 °F /  25.7 °C 59.2 °F /  15.1 °C 29.99in /  1015.5hPa NE 4.0mph /  6.4km/h 10.0mph /  16.1km/h 52% 0.00in /  0mm
16:34 78.4 °F /  25.8 °C 58.8 °F /  14.9 °C 29.98in /  1015.1hPa NNE 5.0mph /  8km/h 10.0mph /  16.1km/h 51% 0.00in /  0mm
16:39 79.0 °F /  26.1 °C 60.9 °F /  16.1 °C 29.98in /  1015.1hPa North 3.0mph /  4.8km/h 9.0mph /  14.5km/h 54% 0.00in /  0mm
16:44 79.0 °F /  26.1 °C 59.3 °F /  15.2 °C 29.98in /  1015.1hPa NNE 5.0mph /  8km/h 12.0mph /  19.3km/h 51% 0.00in /  0mm
16:49 78.8 °F /  26 °C 58.0 °F /  14.4 °C 29.99in /  1015.5hPa NE 4.0mph /  6.4km/h 12.0mph /  19.3km/h 49% 0.00in /  0mm
16:54 78.4 °F /  25.8 °C 59.9 °F /  15.5 °C 29.99in /  1015.5hPa NE 5.0mph /  8km/h 11.0mph /  17.7km/h 53% 0.00in /  0mm
16:59 78.6 °F /  25.9 °C 58.4 °F /  14.7 °C 29.99in /  1015.5hPa NE 2.0mph /  3.2km/h 13.0mph /  20.9km/h 50% 0.00in /  0mm
17:04 78.7 °F /  25.9 °C 59.6 °F /  15.3 °C 29.98in /  1015.1hPa ENE 3.0mph /  4.8km/h 9.0mph /  14.5km/h 52% 0.00in /  0mm
17:09 78.5 °F /  25.8 °C 59.4 °F /  15.2 °C 29.98in /  1015.1hPa NE 6.0mph /  9.7km/h 8.0mph /  12.9km/h 52% 0.00in /  0mm
17:14 78.5 °F /  25.8 °C 58.9 °F /  14.9 °C 29.99in /  1015.5hPa NNW 4.0mph /  6.4km/h 9.0mph /  14.5km/h 51% 0.00in /  0mm
17:19 78.8 °F /  26 °C 59.1 °F /  15.1 °C 29.99in /  1015.5hPa North 3.0mph /  4.8km/h 9.0mph /  14.5km/h 51% 0.00in /  0mm
17:24 78.5 °F /  25.8 °C 59.4 °F /  15.2 °C 29.99in /  1015.5hPa NNE 3.0mph /  4.8km/h 8.0mph /  12.9km/h 52% 0.00in /  0mm
17:29 78.5 °F /  25.8 °C 59.4 °F /  15.2 °C 29.99in /  1015.5hPa NE 3.0mph /  4.8km/h 9.0mph /  14.5km/h 52% 0.00in /  0mm
17:34 78.7 °F /  25.9 °C 59.0 °F /  15 °C 29.99in /  1015.5hPa NNE 3.0mph /  4.8km/h 9.0mph /  14.5km/h 51% 0.00in /  0mm
17:39 79.0 °F /  26.1 °C 59.3 °F /  15.2 °C 29.99in /  1015.5hPa NNW 3.0mph /  4.8km/h 8.0mph /  12.9km/h 51% 0.00in /  0mm
17:44 78.3 °F /  25.7 °C 58.1 °F /  14.5 °C 29.99in /  1015.5hPa NNE 4.0mph /  6.4km/h 10.0mph /  16.1km/h 50% 0.00in /  0mm
17:49 78.4 °F /  25.8 °C 60.4 °F /  15.8 °C 29.98in /  1015.1hPa NE 3.0mph /  4.8km/h 10.0mph /  16.1km/h 54% 0.00in /  0mm
17:54 78.5 °F /  25.8 °C 59.4 °F /  15.2 °C 29.98in /  1015.1hPa NNE 1.0mph /  1.6km/h 7.0mph /  11.3km/h 52% 0.00in /  0mm
17:59 78.4 °F /  25.8 °C 59.3 °F /  15.2 °C 29.98in /  1015.1hPa NNW 2.0mph /  3.2km/h 9.0mph /  14.5km/h 52% 0.00in /  0mm
18:04 78.0 °F /  25.6 °C 58.9 °F /  14.9 °C 29.98in /  1015.1hPa North 3.0mph /  4.8km/h 7.0mph /  11.3km/h 52% 0.00in /  0mm
18:09 77.6 °F /  25.3 °C 59.1 °F /  15.1 °C 29.98in /  1015.1hPa NE 4.0mph /  6.4km/h 7.0mph /  11.3km/h 53% 0.00in /  0mm
18:14 78.0 °F /  25.6 °C 59.5 °F /  15.3 °C 29.98in /  1015.1hPa North 4.0mph /  6.4km/h 9.0mph /  14.5km/h 53% 0.00in /  0mm
18:19 77.6 °F /  25.3 °C 59.1 °F /  15.1 °C 29.98in /  1015.1hPa North 3.0mph /  4.8km/h 9.0mph /  14.5km/h 53% 0.00in /  0mm
18:24 77.3 °F /  25.2 °C 58.8 °F /  14.9 °C 29.98in /  1015.1hPa NNW 4.0mph /  6.4km/h 9.0mph /  14.5km/h 53% 0.00in /  0mm
18:29 77.3 °F /  25.2 °C 59.9 °F /  15.5 °C 29.98in /  1015.1hPa North 3.0mph /  4.8km/h 8.0mph /  12.9km/h 55% 0.00in /  0mm
18:34 77.3 °F /  25.2 °C 59.9 °F /  15.5 °C 29.98in /  1015.1hPa North 3.0mph /  4.8km/h 6.0mph /  9.7km/h 55% 0.00in /  0mm
18:39 77.0 °F /  25 °C 59.1 °F /  15.1 °C 29.98in /  1015.1hPa NNE 2.0mph /  3.2km/h 11.0mph /  17.7km/h 54% 0.00in /  0mm
18:44 76.9 °F /  24.9 °C 59.5 °F /  15.3 °C 29.98in /  1015.1hPa NW 3.0mph /  4.8km/h 5.0mph /  8km/h 55% 0.00in /  0mm
18:49 76.9 °F /  24.9 °C 59.5 °F /  15.3 °C 29.98in /  1015.1hPa NNW 2.0mph /  3.2km/h 5.0mph /  8km/h 55% 0.00in /  0mm
18:54 76.6 °F /  24.8 °C 59.7 °F /  15.4 °C 29.98in /  1015.1hPa NNW 3.0mph /  4.8km/h 8.0mph /  12.9km/h 56% 0.00in /  0mm
18:59 76.4 °F /  24.7 °C 59.5 °F /  15.3 °C 29.98in /  1015.1hPa NNW 1.0mph /  1.6km/h 7.0mph /  11.3km/h 56% 0.00in /  0mm
19:04 76.4 °F /  24.7 °C 59.0 °F /  15 °C 29.98in /  1015.1hPa North 4.0mph /  6.4km/h 8.0mph /  12.9km/h 55% 0.00in /  0mm
19:09 76.2 °F /  24.6 °C 58.9 °F /  14.9 °C 29.98in /  1015.1hPa North 1.0mph /  1.6km/h 7.0mph /  11.3km/h 55% 0.00in /  0mm
19:14 76.2 °F /  24.6 °C 58.3 °F /  14.6 °C 29.98in /  1015.1hPa NNW 5.0mph /  8km/h 8.0mph /  12.9km/h 54% 0.00in /  0mm
19:19 76.1 °F /  24.5 °C 59.3 °F /  15.2 °C 29.98in /  1015.1hPa NNW 3.0mph /  4.8km/h 8.0mph /  12.9km/h 56% 0.00in /  0mm
19:24 76.1 °F /  24.5 °C 58.8 °F /  14.9 °C 29.98in /  1015.1hPa NNW 2.0mph /  3.2km/h 5.0mph /  8km/h 55% 0.00in /  0mm
19:29 75.9 °F /  24.4 °C 58.6 °F /  14.8 °C 29.98in /  1015.1hPa NW 2.0mph /  3.2km/h 5.0mph /  8km/h 55% 0.00in /  0mm
19:34 75.6 °F /  24.2 °C 58.8 °F /  14.9 °C 29.98in /  1015.1hPa NNW 3.0mph /  4.8km/h 5.0mph /  8km/h 56% 0.00in /  0mm
19:39 75.3 °F /  24.1 °C 58.5 °F /  14.7 °C 29.99in /  1015.5hPa Calm   4.0mph /  6.4km/h 56% 0.00in /  0mm
19:44 75.1 °F /  23.9 °C 59.3 °F /  15.2 °C 29.98in /  1015.1hPa Calm     58% 0.00in /  0mm
19:49 74.8 °F /  23.8 °C 58.5 °F /  14.7 °C 29.98in /  1015.1hPa Calm   2.0mph /  3.2km/h 57% 0.00in /  0mm
19:54 74.6 °F /  23.7 °C 59.3 °F /  15.2 °C 29.98in /  1015.1hPa Calm   2.0mph /  3.2km/h 59% 0.00in /  0mm
19:59 74.5 °F /  23.6 °C 58.8 °F /  14.9 °C 29.98in /  1015.1hPa Calm   2.0mph /  3.2km/h 58% 0.00in /  0mm
20:04 74.4 °F /  23.6 °C 58.7 °F /  14.8 °C 29.99in /  1015.5hPa Calm   3.0mph /  4.8km/h 58% 0.00in /  0mm
20:09 74.4 °F /  23.6 °C 59.1 °F /  15.1 °C 29.99in /  1015.5hPa Calm     59% 0.00in /  0mm
20:14 74.2 °F /  23.4 °C 58.9 °F /  14.9 °C 29.98in /  1015.1hPa Calm     59% 0.00in /  0mm
20:19 74.0 °F /  23.3 °C 59.2 °F /  15.1 °C 29.98in /  1015.1hPa Calm     60% 0.00in /  0mm
20:24 73.7 °F /  23.2 °C 58.5 °F /  14.7 °C 29.98in /  1015.1hPa Calm   2.0mph /  3.2km/h 59% 0.00in /  0mm
20:29 73.5 °F /  23.1 °C 58.8 °F /  14.9 °C 29.98in /  1015.1hPa Calm   2.0mph /  3.2km/h 60% 0.00in /  0mm
20:34 73.6 °F /  23.1 °C 58.9 °F /  14.9 °C 29.98in /  1015.1hPa Calm   2.0mph /  3.2km/h 60% 0.00in /  0mm
20:39 73.4 °F /  23 °C 59.1 °F /  15.1 °C 29.98in /  1015.1hPa Calm     61% 0.00in /  0mm
20:44 73.2 °F /  22.9 °C 58.9 °F /  14.9 °C 29.98in /  1015.1hPa Calm     61% 0.00in /  0mm
20:49 73.0 °F /  22.8 °C 58.8 °F /  14.9 °C 29.98in /  1015.1hPa Calm     61% 0.00in /  0mm
20:54 72.8 °F /  22.7 °C 58.6 °F /  14.8 °C 29.98in /  1015.1hPa Calm     61% 0.00in /  0mm
20:59 72.7 °F /  22.6 °C 58.9 °F /  14.9 °C 29.98in /  1015.1hPa Calm     62% 0.00in /  0mm
21:04 72.8 °F /  22.7 °C 59.0 °F /  15 °C 29.98in /  1015.1hPa Calm     62% 0.00in /  0mm
21:09 72.8 °F /  22.7 °C 59.0 °F /  15 °C 29.99in /  1015.5hPa Calm     62% 0.00in /  0mm
21:14 72.8 °F /  22.7 °C 59.0 °F /  15 °C 29.99in /  1015.5hPa Calm     62% 0.00in /  0mm
21:19 72.8 °F /  22.7 °C 59.5 °F /  15.3 °C 29.99in /  1015.5hPa Calm   4.0mph /  6.4km/h 63% 0.00in /  0mm
21:24 72.7 °F /  22.6 °C 59.4 °F /  15.2 °C 29.99in /  1015.5hPa Calm     63% 0.00in /  0mm
21:29 72.7 °F /  22.6 °C 59.4 °F /  15.2 °C 29.99in /  1015.5hPa Calm     63% 0.00in /  0mm
21:34 72.6 °F /  22.6 °C 59.3 °F /  15.2 °C 29.99in /  1015.5hPa Calm     63% 0.00in /  0mm
21:39 72.3 °F /  22.4 °C 59.4 °F /  15.2 °C 29.99in /  1015.5hPa Calm     64% 0.00in /  0mm
21:44 72.1 °F /  22.3 °C 59.7 °F /  15.4 °C 29.99in /  1015.5hPa Calm     65% 0.00in /  0mm
21:49 72.1 °F /  22.3 °C 59.7 °F /  15.4 °C 29.99in /  1015.5hPa Calm     65% 0.00in /  0mm
21:54 72.1 °F /  22.3 °C 59.7 °F /  15.4 °C 30.00in /  1015.8hPa Calm     65% 0.00in /  0mm
21:59 71.9 °F /  22.2 °C 59.5 °F /  15.3 °C 30.00in /  1015.8hPa Calm     65% 0.00in /  0mm
22:04 71.5 °F /  21.9 °C 59.5 °F /  15.3 °C 30.00in /  1015.8hPa Calm     66% 0.00in /  0mm
22:09 71.0 °F /  21.7 °C 59.5 °F /  15.3 °C 30.00in /  1015.8hPa Calm     67% 0.00in /  0mm
22:14 70.6 °F /  21.4 °C 59.5 °F /  15.3 °C 30.00in /  1015.8hPa Calm     68% 0.00in /  0mm
22:19 70.6 °F /  21.4 °C 59.5 °F /  15.3 °C 30.00in /  1015.8hPa Calm     68% 0.00in /  0mm
22:24 70.2 °F /  21.2 °C 59.6 °F /  15.3 °C 30.00in /  1015.8hPa Calm     69% 0.00in /  0mm
22:29 70.0 °F /  21.1 °C 59.8 °F /  15.4 °C 30.00in /  1015.8hPa Calm     70% 0.00in /  0mm
22:34 69.9 °F /  21.1 °C 59.7 °F /  15.4 °C 30.00in /  1015.8hPa Calm     70% 0.00in /  0mm
22:39 70.2 °F /  21.2 °C 60.0 °F /  15.6 °C 29.99in /  1015.5hPa Calm     70% 0.00in /  0mm
22:44 70.2 °F /  21.2 °C 59.6 °F /  15.3 °C 29.99in /  1015.5hPa Calm     69% 0.00in /  0mm
22:49 69.9 °F /  21.1 °C 59.7 °F /  15.4 °C 29.99in /  1015.5hPa Calm     70% 0.00in /  0mm
22:54 69.6 °F /  20.9 °C 59.8 °F /  15.4 °C 30.00in /  1015.8hPa Calm     71% 0.00in /  0mm
22:59 68.9 °F /  20.5 °C 59.5 °F /  15.3 °C 29.99in /  1015.5hPa Calm     72% 0.00in /  0mm
23:04 68.5 °F /  20.3 °C 59.5 °F /  15.3 °C 29.99in /  1015.5hPa Calm     73% 0.00in /  0mm
23:09 68.3 °F /  20.2 °C 59.3 °F /  15.2 °C 29.99in /  1015.5hPa Calm     73% 0.00in /  0mm
23:14 68.0 °F /  20 °C 59.4 °F /  15.2 °C 29.99in /  1015.5hPa Calm     74% 0.00in /  0mm
23:19 67.9 °F /  19.9 °C 59.3 °F /  15.2 °C 29.99in /  1015.5hPa Calm     74% 0.00in /  0mm
23:24 67.9 °F /  19.9 °C 59.3 °F /  15.2 °C 29.99in /  1015.5hPa Calm     74% 0.00in /  0mm
23:29 68.1 °F /  20.1 °C 59.1 °F /  15.1 °C 29.99in /  1015.5hPa Calm     73% 0.00in /  0mm
23:34 68.4 °F /  20.2 °C 59.0 °F /  15 °C 29.99in /  1015.5hPa Calm   2.0mph /  3.2km/h 72% 0.00in /  0mm
23:39 68.6 °F /  20.3 °C 59.2 °F /  15.1 °C 29.99in /  1015.5hPa Calm     72% 0.00in /  0mm
23:49 68.5 °F /  20.3 °C 59.1 °F /  15.1 °C 30.00in /  1015.8hPa Calm     72% 0.00in /  0mm
23:54 68.5 °F /  20.3 °C 59.1 °F /  15.1 °C 30.00in /  1015.8hPa Calm   3.0mph /  4.8km/h 72% 0.00in /  0mm
23:59 68.7 °F /  20.4 °C 59.3 °F /  15.2 °C 30.00in /  1015.8hPa Calm   4.0mph /  6.4km/h 72% 0.00in /  0mm
Buffalo, New York, USA
Compliments of Weather Underground - 2.5 mb